createdAt,value
2016-08-27T00:00:32.553Z,55.68
2016-08-27T00:01:06.839Z,55.8
2016-08-27T00:01:41.114Z,55.49
2016-08-27T00:02:15.400Z,55.49
2016-08-27T00:02:49.685Z,55.58
2016-08-27T00:03:23.968Z,55.58
2016-08-27T00:03:58.264Z,55.58
2016-08-27T00:04:32.566Z,55.39
2016-08-27T00:05:06.857Z,55.49
2016-08-27T00:05:41.137Z,55.49
2016-08-27T00:06:15.441Z,55.39
2016-08-27T00:06:49.726Z,55.49
2016-08-27T00:07:24.002Z,55.49
2016-08-27T00:07:58.277Z,55.29
2016-08-27T00:08:32.561Z,55.58
2016-08-27T00:09:06.843Z,55.49
2016-08-27T00:09:41.134Z,55.68
2016-08-27T00:10:15.436Z,55.29
2016-08-27T00:10:49.708Z,55.29
2016-08-27T00:11:23.996Z,55.39
2016-08-27T00:11:58.279Z,55.29
2016-08-27T00:12:32.561Z,55.39
2016-08-27T00:13:06.842Z,55.39
2016-08-27T00:13:41.132Z,55.39
2016-08-27T00:14:15.413Z,55.39
2016-08-27T00:14:49.701Z,55.39
2016-08-27T00:15:23.988Z,55.39
2016-08-27T00:15:58.278Z,55.88
2016-08-27T00:16:32.551Z,55.98
2016-08-27T00:17:06.834Z,55.19
2016-08-27T00:17:41.145Z,55.39
2016-08-27T00:18:15.433Z,55.29
2016-08-27T00:18:49.713Z,55.88
2016-08-27T00:19:23.985Z,55.29
2016-08-27T00:19:58.264Z,55.39
2016-08-27T00:20:32.555Z,55.88
2016-08-27T00:21:06.831Z,55.29
2016-08-27T00:21:41.117Z,55.1
2016-08-27T00:22:15.398Z,55.39
2016-08-27T00:22:49.696Z,55.19
2016-08-27T00:23:23.999Z,55.39
2016-08-27T00:23:58.284Z,55.19
2016-08-27T00:24:32.568Z,55.39
2016-08-27T00:25:06.850Z,55.19
2016-08-27T00:25:41.123Z,55.19
2016-08-27T00:26:15.402Z,56.16
2016-08-27T00:26:49.693Z,55.19
2016-08-27T00:27:23.968Z,55.29
2016-08-27T00:27:58.252Z,55.19
2016-08-27T00:28:32.529Z,55.58
2016-08-27T00:29:06.799Z,55.29
2016-08-27T00:29:41.071Z,55.68
2016-08-27T00:30:15.350Z,55.68
2016-08-27T00:30:49.652Z,55.68
2016-08-27T00:31:23.957Z,55.68
2016-08-27T00:31:58.257Z,55.78
2016-08-27T00:32:32.548Z,55.39
2016-08-27T00:33:06.836Z,55.88
2016-08-27T00:33:41.148Z,55.78
2016-08-27T00:34:15.434Z,55.39
2016-08-27T00:34:49.749Z,55.78
2016-08-27T00:35:24.018Z,55.58
2016-08-27T00:35:58.307Z,55.68
2016-08-27T00:36:32.580Z,55.58
2016-08-27T00:37:06.852Z,55.98
2016-08-27T00:37:41.128Z,55.39
2016-08-27T00:38:15.411Z,55.88
2016-08-27T00:38:49.688Z,55.78
2016-08-27T00:39:23.991Z,55.78
2016-08-27T00:39:58.285Z,55.98
2016-08-27T00:40:32.558Z,55.98
2016-08-27T00:41:06.851Z,55.75
2016-08-27T00:41:41.138Z,56.14
2016-08-27T00:42:15.432Z,55.78
2016-08-27T00:42:49.728Z,55.46
2016-08-27T00:43:24.012Z,56.16
2016-08-27T00:43:58.297Z,55.85
2016-08-27T00:44:32.589Z,56.24
2016-08-27T00:45:06.885Z,55.88
2016-08-27T00:45:41.159Z,55.65
2016-08-27T00:46:15.435Z,55.85
2016-08-27T00:46:49.705Z,55.88
2016-08-27T00:47:23.993Z,56.24
2016-08-27T00:47:58.275Z,56.24
2016-08-27T00:48:32.555Z,56.04
2016-08-27T00:49:06.859Z,56.24
2016-08-27T00:49:41.145Z,55.94
2016-08-27T00:50:15.440Z,56.14
2016-08-27T00:50:49.718Z,56.24
2016-08-27T00:51:24.022Z,56.43
2016-08-27T00:51:58.299Z,56.04
2016-08-27T00:52:32.585Z,55.94
2016-08-27T00:53:06.871Z,56.04
2016-08-27T00:53:41.159Z,55.85
2016-08-27T00:54:15.432Z,56.04
2016-08-27T00:54:49.715Z,56.04
2016-08-27T00:55:23.997Z,55.94
2016-08-27T00:55:58.283Z,55.94
2016-08-27T00:56:33.296Z,55.75
2016-08-27T00:57:07.577Z,55.94
2016-08-27T00:57:41.861Z,56.04
2016-08-27T00:58:16.155Z,56.04
2016-08-27T00:58:50.438Z,55.94
2016-08-27T00:59:24.737Z,55.94
2016-08-27T00:59:59.029Z,55.94
2016-08-27T01:00:33.334Z,56.04
2016-08-27T01:01:07.613Z,56.04
2016-08-27T01:01:41.908Z,56.24
2016-08-27T01:02:16.212Z,55.94
2016-08-27T01:02:50.485Z,56.04
2016-08-27T01:03:24.788Z,56.04
2016-08-27T01:03:59.092Z,56.04
2016-08-27T01:04:33.368Z,55.94
2016-08-27T01:05:07.650Z,55.94
2016-08-27T01:05:41.938Z,55.85
2016-08-27T01:06:16.218Z,55.85
2016-08-27T01:06:50.487Z,55.94
2016-08-27T01:07:24.783Z,55.94
2016-08-27T01:07:59.082Z,55.94
2016-08-27T01:08:33.367Z,55.94
2016-08-27T01:09:07.655Z,55.85
2016-08-27T01:09:41.948Z,56.24
2016-08-27T01:10:16.231Z,55.94
2016-08-27T01:10:50.525Z,56.34
2016-08-27T01:11:24.816Z,55.94
2016-08-27T01:11:59.098Z,55.94
2016-08-27T01:12:33.398Z,55.85
2016-08-27T01:13:07.683Z,56.24
2016-08-27T01:13:41.958Z,56.24
2016-08-27T01:14:16.229Z,55.94
2016-08-27T01:14:50.507Z,56.24
2016-08-27T01:15:24.816Z,55.85
2016-08-27T01:15:58.438Z,55.94
2016-08-27T01:16:32.723Z,55.75
2016-08-27T01:17:07.003Z,55.94
2016-08-27T01:17:41.280Z,55.85
2016-08-27T01:18:15.554Z,55.94
2016-08-27T01:18:49.831Z,55.85
2016-08-27T01:19:24.121Z,56.01
2016-08-27T01:19:58.405Z,55.85
2016-08-27T01:20:32.687Z,56.24
2016-08-27T01:21:06.984Z,55.94
2016-08-27T01:21:41.289Z,55.85
2016-08-27T01:22:15.577Z,55.85
2016-08-27T01:22:49.851Z,55.85
2016-08-27T01:23:24.170Z,55.82
2016-08-27T01:24:22.483Z,56.04
2016-08-27T01:24:56.790Z,55.85
2016-08-27T01:25:31.069Z,56.04
2016-08-27T01:26:05.356Z,55.94
2016-08-27T01:26:39.650Z,56.04
2016-08-27T01:27:13.939Z,55.94
2016-08-27T01:27:48.223Z,55.73
2016-08-27T01:28:22.504Z,55.94
2016-08-27T01:28:56.793Z,56.11
2016-08-27T01:29:31.081Z,55.75
2016-08-27T01:30:05.360Z,55.73
2016-08-27T01:30:39.671Z,55.75
2016-08-27T01:31:13.969Z,55.75
2016-08-27T01:31:48.246Z,55.73
2016-08-27T01:32:22.537Z,55.92
2016-08-27T01:32:56.844Z,55.73
2016-08-27T01:33:31.144Z,55.92
2016-08-27T01:34:05.426Z,55.92
2016-08-27T01:34:39.709Z,56.24
2016-08-27T01:35:13.986Z,55.85
2016-08-27T01:35:48.276Z,55.92
2016-08-27T01:36:22.550Z,56.14
2016-08-27T01:36:56.839Z,56.24
2016-08-27T01:37:31.129Z,55.63
2016-08-27T01:38:05.411Z,55.92
2016-08-27T01:38:39.693Z,55.63
2016-08-27T01:39:13.994Z,55.73
2016-08-27T01:39:48.276Z,55.94
2016-08-27T01:40:22.567Z,55.65
2016-08-27T01:40:56.858Z,55.82
2016-08-27T01:41:31.134Z,55.63
2016-08-27T01:42:05.412Z,55.92
2016-08-27T01:42:39.705Z,55.82
2016-08-27T01:43:14.000Z,56.21
2016-08-27T01:43:48.276Z,55.82
2016-08-27T01:44:22.571Z,55.82
2016-08-27T01:44:56.862Z,56.11
2016-08-27T01:45:31.143Z,55.92
2016-08-27T01:46:05.415Z,55.73
2016-08-27T01:46:39.693Z,55.82
2016-08-27T01:47:13.967Z,55.82
2016-08-27T01:47:48.236Z,55.73
2016-08-27T01:48:22.522Z,55.73
2016-08-27T01:48:56.808Z,55.92
2016-08-27T01:49:31.094Z,55.92
2016-08-27T01:50:05.381Z,55.73
2016-08-27T01:50:39.671Z,55.73
2016-08-27T01:51:13.960Z,55.92
2016-08-27T01:51:48.249Z,55.92
2016-08-27T01:52:22.536Z,55.73
2016-08-27T01:52:56.819Z,55.82
2016-08-27T01:53:31.102Z,56.21
2016-08-27T01:54:05.382Z,55.82
2016-08-27T01:54:39.650Z,55.73
2016-08-27T01:55:13.934Z,55.82
2016-08-27T01:55:48.209Z,55.82
2016-08-27T01:56:22.502Z,55.92
2016-08-27T01:56:56.782Z,56.01
2016-08-27T01:57:31.074Z,56.01
2016-08-27T01:58:05.357Z,55.82
2016-08-27T01:58:39.640Z,56.01
2016-08-27T01:59:13.914Z,55.92
2016-08-27T01:59:48.202Z,55.82
2016-08-27T02:00:22.482Z,56.01
2016-08-27T02:00:56.770Z,55.92
2016-08-27T02:01:31.043Z,56.01
2016-08-27T02:02:05.313Z,56.21
2016-08-27T02:02:39.597Z,55.82
2016-08-27T02:03:14.471Z,56.01
2016-08-27T02:03:48.752Z,55.73
2016-08-27T02:04:23.041Z,55.73
2016-08-27T02:04:57.350Z,56.01
2016-08-27T02:05:31.624Z,55.82
2016-08-27T02:06:05.930Z,55.82
2016-08-27T02:06:40.214Z,55.82
2016-08-27T02:07:14.513Z,55.92
2016-08-27T02:07:48.815Z,55.92
2016-08-27T02:08:23.113Z,56.11
2016-08-27T02:08:57.380Z,55.82
2016-08-27T02:09:31.673Z,55.82
2016-08-27T02:10:05.967Z,55.82
2016-08-27T02:10:40.265Z,55.92
2016-08-27T02:11:14.553Z,55.82
2016-08-27T02:11:48.828Z,55.73
2016-08-27T02:12:23.107Z,55.92
2016-08-27T02:12:57.384Z,56.11
2016-08-27T02:13:31.670Z,55.82
2016-08-27T02:14:05.959Z,55.82
2016-08-27T02:14:40.257Z,55.92
2016-08-27T02:15:14.526Z,55.82
2016-08-27T02:15:48.810Z,55.63
2016-08-27T02:16:23.091Z,56.3
2016-08-27T02:16:57.365Z,55.82
2016-08-27T02:17:31.650Z,55.82
2016-08-27T02:18:05.930Z,55.82
2016-08-27T02:18:40.213Z,56.01
2016-08-27T02:19:14.483Z,55.73
2016-08-27T02:19:48.756Z,55.82
2016-08-27T02:20:23.049Z,55.82
2016-08-27T02:20:57.341Z,55.92
2016-08-27T02:21:31.623Z,55.73
2016-08-27T02:22:05.925Z,55.99
2016-08-27T02:22:40.213Z,56.01
2016-08-27T02:23:14.495Z,55.73
2016-08-27T02:23:48.778Z,55.63
2016-08-27T02:24:23.060Z,55.73
2016-08-27T02:24:57.360Z,55.92
2016-08-27T02:25:31.631Z,55.73
2016-08-27T02:26:05.911Z,55.92
2016-08-27T02:26:40.186Z,55.63
2016-08-27T02:27:14.477Z,56.01
2016-08-27T02:27:48.773Z,55.99
2016-08-27T02:28:23.046Z,55.92
2016-08-27T02:28:57.339Z,56.01
2016-08-27T02:29:31.620Z,55.73
2016-08-27T02:30:05.919Z,55.89
2016-08-27T02:30:40.205Z,56.01
2016-08-27T02:31:14.480Z,55.92
2016-08-27T02:31:48.755Z,56.09
2016-08-27T02:32:23.062Z,55.89
2016-08-27T02:32:57.372Z,55.89
2016-08-27T02:33:31.652Z,55.89
2016-08-27T02:34:05.934Z,55.79
2016-08-27T02:34:40.230Z,55.99
2016-08-27T02:35:14.502Z,56.18
2016-08-27T02:35:48.785Z,55.99
2016-08-27T02:36:23.080Z,55.89
2016-08-27T02:36:57.377Z,55.79
2016-08-27T02:37:31.659Z,55.89
2016-08-27T02:38:05.942Z,56.01
2016-08-27T02:38:40.230Z,55.99
2016-08-27T02:39:14.502Z,56.28
2016-08-27T02:39:48.790Z,55.89
2016-08-27T02:40:23.079Z,55.89
2016-08-27T02:40:57.366Z,55.79
2016-08-27T02:41:31.671Z,55.99
2016-08-27T02:42:05.978Z,55.99
2016-08-27T02:42:40.251Z,55.99
2016-08-27T02:43:14.543Z,55.89
2016-08-27T02:43:48.832Z,55.89
2016-08-27T02:44:23.110Z,55.89
2016-08-27T02:44:57.387Z,55.89
2016-08-27T02:45:31.690Z,55.79
2016-08-27T02:46:05.978Z,55.79
2016-08-27T02:46:40.269Z,56.37
2016-08-27T02:47:14.550Z,56.37
2016-08-27T02:47:48.838Z,55.99
2016-08-27T02:48:23.109Z,55.99
2016-08-27T02:48:57.397Z,55.79
2016-08-27T02:49:31.691Z,56.18
2016-08-27T02:50:06.497Z,55.79
2016-08-27T02:50:40.775Z,55.89
2016-08-27T02:51:15.056Z,55.89
2016-08-27T02:51:49.328Z,56.28
2016-08-27T02:52:23.621Z,55.89
2016-08-27T02:52:57.916Z,55.79
2016-08-27T02:53:32.196Z,55.79
2016-08-27T02:54:06.466Z,55.89
2016-08-27T02:54:40.787Z,55.69
2016-08-27T02:55:15.085Z,56.18
2016-08-27T02:55:49.360Z,55.99
2016-08-27T02:56:23.643Z,55.69
2016-08-27T02:56:57.937Z,55.99
2016-08-27T02:57:32.210Z,55.79
2016-08-27T02:58:06.530Z,55.89
2016-08-27T02:58:40.803Z,55.79
2016-08-27T02:59:15.083Z,55.79
2016-08-27T02:59:49.371Z,55.79
2016-08-27T03:00:23.641Z,55.89
2016-08-27T03:00:57.920Z,56.09
2016-08-27T03:01:32.208Z,55.79
2016-08-27T03:02:06.499Z,56.18
2016-08-27T03:02:40.792Z,55.99
2016-08-27T03:03:15.073Z,55.89
2016-08-27T03:03:49.357Z,55.99
2016-08-27T03:04:23.661Z,55.79
2016-08-27T03:04:57.940Z,55.79
2016-08-27T03:05:32.221Z,55.79
2016-08-27T03:06:06.514Z,56.09
2016-08-27T03:06:40.782Z,55.79
2016-08-27T03:07:15.067Z,56.09
2016-08-27T03:07:49.371Z,56.09
2016-08-27T03:08:23.644Z,56.18
2016-08-27T03:08:57.927Z,55.6
2016-08-27T03:09:32.214Z,55.89
2016-08-27T03:10:06.502Z,55.89
2016-08-27T03:10:40.783Z,55.79
2016-08-27T03:11:15.087Z,55.89
2016-08-27T03:11:49.384Z,55.89
2016-08-27T03:12:23.678Z,55.79
2016-08-27T03:13:22.043Z,55.89
2016-08-27T03:13:56.346Z,55.69
2016-08-27T03:14:30.633Z,55.89
2016-08-27T03:15:04.925Z,55.99
2016-08-27T03:15:39.209Z,55.79
2016-08-27T03:16:13.512Z,56.09
2016-08-27T03:16:47.806Z,56.18
2016-08-27T03:17:22.086Z,56.09
2016-08-27T03:17:56.368Z,55.89
2016-08-27T03:18:30.644Z,55.79
2016-08-27T03:19:04.950Z,55.69
2016-08-27T03:19:39.229Z,55.77
2016-08-27T03:20:13.514Z,55.87
2016-08-27T03:20:47.808Z,55.79
2016-08-27T03:21:22.089Z,55.99
2016-08-27T03:21:56.382Z,55.89
2016-08-27T03:22:30.677Z,55.77
2016-08-27T03:23:28.766Z,55.87
2016-08-27T03:24:03.074Z,55.89
2016-08-27T03:24:37.364Z,55.77
2016-08-27T03:25:11.664Z,55.77
2016-08-27T03:25:45.953Z,55.87
2016-08-27T03:26:20.239Z,55.6
2016-08-27T03:26:54.530Z,56.18
2016-08-27T03:27:28.836Z,55.6
2016-08-27T03:28:03.119Z,55.69
2016-08-27T03:28:37.395Z,55.67
2016-08-27T03:29:11.693Z,55.69
2016-08-27T03:29:45.988Z,55.6
2016-08-27T03:30:20.270Z,55.57
2016-08-27T03:30:54.577Z,55.57
2016-08-27T03:31:28.878Z,55.77
2016-08-27T03:32:03.155Z,55.57
2016-08-27T03:32:37.447Z,56.54
2016-08-27T03:33:11.739Z,56.45
2016-08-27T03:33:46.030Z,55.6
2016-08-27T03:34:20.339Z,55.69
2016-08-27T03:34:54.623Z,56.54
2016-08-27T03:35:28.922Z,55.96
2016-08-27T03:36:03.213Z,55.6
2016-08-27T03:36:37.486Z,55.67
2016-08-27T03:37:11.778Z,55.67
2016-08-27T03:37:46.064Z,55.87
2016-08-27T03:38:20.354Z,55.67
2016-08-27T03:38:54.634Z,56.25
2016-08-27T03:39:28.904Z,55.57
2016-08-27T03:40:03.200Z,55.67
2016-08-27T03:40:37.485Z,55.57
2016-08-27T03:41:11.807Z,56.25
2016-08-27T03:41:46.105Z,56.35
2016-08-27T03:42:20.423Z,56.05
2016-08-27T03:42:54.752Z,56.35
2016-08-27T03:43:52.998Z,56.25
2016-08-27T03:44:27.292Z,56.25
2016-08-27T03:45:01.581Z,56.35
2016-08-27T03:45:35.863Z,56.35
2016-08-27T03:46:10.176Z,55.87
2016-08-27T03:46:44.467Z,56.15
2016-08-27T03:47:18.737Z,56.35
2016-08-27T03:47:53.001Z,56.15
2016-08-27T03:48:27.275Z,56.05
2016-08-27T03:49:01.572Z,56.05
2016-08-27T03:49:35.871Z,56.25
2016-08-27T03:50:10.180Z,56.15
2016-08-27T03:50:44.490Z,55.96
2016-08-27T03:51:18.764Z,55.96
2016-08-27T03:51:53.054Z,56.54
2016-08-27T03:52:27.336Z,56.25
2016-08-27T03:53:01.620Z,56.25
2016-08-27T03:53:35.889Z,55.96
2016-08-27T03:54:10.161Z,56.25
2016-08-27T03:54:44.455Z,56.05
2016-08-27T03:55:18.751Z,56.15
2016-08-27T03:55:53.031Z,56.05
2016-08-27T03:56:27.309Z,56.05
2016-08-27T03:57:01.601Z,56.05
2016-08-27T03:57:35.888Z,56.05
2016-08-27T03:58:10.192Z,56.35
2016-08-27T03:58:44.475Z,56.05
2016-08-27T03:59:18.752Z,56.15
2016-08-27T03:59:53.037Z,56.25
2016-08-27T04:00:27.310Z,56.05
2016-08-27T04:01:01.586Z,55.96
2016-08-27T04:01:35.873Z,56.15
2016-08-27T04:02:10.162Z,56.15
2016-08-27T04:02:44.458Z,56.05
2016-08-27T04:03:18.739Z,56.45
2016-08-27T04:03:53.010Z,56.05
2016-08-27T04:04:27.295Z,56.35
2016-08-27T04:05:01.590Z,56.35
2016-08-27T04:05:35.890Z,56.25
2016-08-27T04:06:10.184Z,56.05
2016-08-27T04:06:44.465Z,56.15
2016-08-27T04:07:18.765Z,56.15
2016-08-27T04:07:53.055Z,55.96
2016-08-27T04:08:27.344Z,56.25
2016-08-27T04:09:01.651Z,56.25
2016-08-27T04:09:35.941Z,56.15
2016-08-27T04:10:10.236Z,55.87
2016-08-27T04:10:44.526Z,56.74
2016-08-27T04:11:18.805Z,56.25
2016-08-27T04:11:53.085Z,56.45
2016-08-27T04:12:27.367Z,56.35
2016-08-27T04:13:01.651Z,56.25
2016-08-27T04:13:35.932Z,56.15
2016-08-27T04:14:10.211Z,56.83
2016-08-27T04:14:44.504Z,56.25
2016-08-27T04:15:18.805Z,56.64
2016-08-27T04:15:53.097Z,56.25
2016-08-27T04:16:27.398Z,56.35
2016-08-27T04:17:01.668Z,56.25
2016-08-27T04:17:35.941Z,56.15
2016-08-27T04:18:10.230Z,56.35
2016-08-27T04:18:44.525Z,56.35
2016-08-27T04:19:18.823Z,56.25
2016-08-27T04:19:53.123Z,56.35
2016-08-27T04:20:27.396Z,56.35
2016-08-27T04:21:01.695Z,56.35
2016-08-27T04:21:35.973Z,56.25
2016-08-27T04:22:10.245Z,56.25
2016-08-27T04:22:44.527Z,55.96
2016-08-27T04:23:18.823Z,56.25
2016-08-27T04:23:53.107Z,56.45
2016-08-27T04:24:27.396Z,56.15
2016-08-27T04:25:01.681Z,56.35
2016-08-27T04:25:35.966Z,56.15
2016-08-27T04:26:11.003Z,56.35
2016-08-27T04:26:45.281Z,56.35
2016-08-27T04:27:19.564Z,56.64
2016-08-27T04:27:53.853Z,56.15
2016-08-27T04:28:28.132Z,56.35
2016-08-27T04:29:02.406Z,56.35
2016-08-27T04:29:36.693Z,56.25
2016-08-27T04:30:10.977Z,56.32
2016-08-27T04:30:45.271Z,56.35
2016-08-27T04:31:19.543Z,56.45
2016-08-27T04:31:53.815Z,56.25
2016-08-27T04:32:28.091Z,56.15
2016-08-27T04:33:02.376Z,56.15
2016-08-27T04:33:36.665Z,56.45
2016-08-27T04:34:10.946Z,56.25
2016-08-27T04:34:45.227Z,56.45
2016-08-27T04:35:19.510Z,56.35
2016-08-27T04:35:53.808Z,56.25
2016-08-27T04:36:28.097Z,56.25
2016-08-27T04:37:02.386Z,56.25
2016-08-27T04:37:36.692Z,56.05
2016-08-27T04:38:10.968Z,56.35
2016-08-27T04:38:45.268Z,56.23
2016-08-27T04:39:19.568Z,56.93
2016-08-27T04:39:53.849Z,56.35
2016-08-27T04:40:28.146Z,56.15
2016-08-27T04:41:02.440Z,56.25
2016-08-27T04:41:36.719Z,56.15
2016-08-27T04:42:11.002Z,56.15
2016-08-27T04:42:45.280Z,56.05
2016-08-27T04:43:19.558Z,56.74
2016-08-27T04:43:53.854Z,56.23
2016-08-27T04:44:28.154Z,56.25
2016-08-27T04:45:02.439Z,56.05
2016-08-27T04:45:36.729Z,56.25
2016-08-27T04:46:11.020Z,56.23
2016-08-27T04:46:45.301Z,56.15
2016-08-27T04:47:19.597Z,56.15
2016-08-27T04:47:53.914Z,56.32
2016-08-27T04:48:28.185Z,56.15
2016-08-27T04:49:02.470Z,56.23
2016-08-27T04:49:36.761Z,56.13
2016-08-27T04:50:11.026Z,56.25
2016-08-27T04:50:45.314Z,56.13
2016-08-27T04:51:19.588Z,56.23
2016-08-27T04:51:53.862Z,56.15
2016-08-27T04:52:28.160Z,56.25
2016-08-27T04:53:02.453Z,56.25
2016-08-27T04:53:36.735Z,56.45
2016-08-27T04:54:11.028Z,56.35
2016-08-27T04:54:45.307Z,56.03
2016-08-27T04:55:19.581Z,56.13
2016-08-27T04:55:53.876Z,56.25
2016-08-27T04:56:28.165Z,56.45
2016-08-27T04:57:02.449Z,56.25
2016-08-27T04:57:36.756Z,56.15
2016-08-27T04:58:11.057Z,56.32
2016-08-27T04:58:45.333Z,56.13
2016-08-27T04:59:19.641Z,56.35
2016-08-27T04:59:53.946Z,56.23
2016-08-27T05:00:28.226Z,56.32
2016-08-27T05:01:02.508Z,56.51
2016-08-27T05:01:36.791Z,56.13
2016-08-27T05:02:11.071Z,56.74
2016-08-27T05:02:45.372Z,56.15
2016-08-27T05:03:19.662Z,56.25
2016-08-27T05:03:53.927Z,56.23
2016-08-27T05:04:28.209Z,56.23
2016-08-27T05:05:02.494Z,56.25
2016-08-27T05:05:36.777Z,56.13
2016-08-27T05:06:11.066Z,56.41
2016-08-27T05:06:45.339Z,56.13
2016-08-27T05:07:19.614Z,56.32
2016-08-27T05:07:53.896Z,56.32
2016-08-27T05:08:28.182Z,56.13
2016-08-27T05:09:02.476Z,56.15
2016-08-27T05:09:36.764Z,56.13
2016-08-27T05:10:11.053Z,56.13
2016-08-27T05:10:45.356Z,56.25
2016-08-27T05:11:19.647Z,56.15
2016-08-27T05:11:53.978Z,56.13
2016-08-27T05:12:28.264Z,56.23
2016-08-27T05:13:02.574Z,56.23
2016-08-27T05:13:36.867Z,56.13
2016-08-27T05:14:11.133Z,56.23
2016-08-27T05:14:45.511Z,56.32
2016-08-27T05:15:19.809Z,56.23
2016-08-27T05:15:54.092Z,56.15
2016-08-27T05:16:28.386Z,56.32
2016-08-27T05:17:02.668Z,56.23
2016-08-27T05:17:36.954Z,56.25
2016-08-27T05:18:11.243Z,56.25
2016-08-27T05:18:45.555Z,56.23
2016-08-27T05:19:19.853Z,56.13
2016-08-27T05:19:54.119Z,56.13
2016-08-27T05:20:28.391Z,56.13
2016-08-27T05:21:02.678Z,56.41
2016-08-27T05:21:36.970Z,56.61
2016-08-27T05:22:11.264Z,56.25
2016-08-27T05:22:45.561Z,56.23
2016-08-27T05:23:19.859Z,56.32
2016-08-27T05:23:54.138Z,56.15
2016-08-27T05:24:28.416Z,56.15
2016-08-27T05:25:02.697Z,55.96
2016-08-27T05:26:00.844Z,56.32
2016-08-27T05:26:35.133Z,56.23
2016-08-27T05:27:09.410Z,56.35
2016-08-27T05:27:43.702Z,56.15
2016-08-27T05:28:17.963Z,56.45
2016-08-27T05:28:52.248Z,56.25
2016-08-27T05:29:26.552Z,56.15
2016-08-27T05:30:00.838Z,56.15
2016-08-27T05:30:35.136Z,56.35
2016-08-27T05:31:33.335Z,56.25
2016-08-27T05:32:07.619Z,56.25
2016-08-27T05:32:41.900Z,56.41
2016-08-27T05:33:16.185Z,56.35
2016-08-27T05:33:50.489Z,56.35
2016-08-27T05:34:24.772Z,56.35
2016-08-27T05:34:59.055Z,56.25
2016-08-27T05:35:33.325Z,56.25
2016-08-27T05:36:07.604Z,56.35
2016-08-27T05:36:41.900Z,56.15
2016-08-27T05:37:16.174Z,56.15
2016-08-27T05:37:50.460Z,56.15
2016-08-27T05:38:24.758Z,55.87
2016-08-27T05:38:59.060Z,56.05
2016-08-27T05:39:33.353Z,56.15
2016-08-27T05:40:07.626Z,56.35
2016-08-27T05:40:41.910Z,56.35
2016-08-27T05:41:16.203Z,56.05
2016-08-27T05:41:50.504Z,56.05
2016-08-27T05:42:24.789Z,56.05
2016-08-27T05:42:59.081Z,56.45
2016-08-27T05:43:33.365Z,56.05
2016-08-27T05:44:07.651Z,55.96
2016-08-27T05:44:41.935Z,56.54
2016-08-27T05:45:16.217Z,56.05
2016-08-27T05:45:51.312Z,56.25
2016-08-27T05:46:25.592Z,55.96
2016-08-27T05:46:59.891Z,55.96
2016-08-27T05:47:34.160Z,56.25
2016-08-27T05:48:08.458Z,55.96
2016-08-27T05:48:42.765Z,56.64
2016-08-27T05:49:17.042Z,56.25
2016-08-27T05:49:51.312Z,56.15
2016-08-27T05:50:25.610Z,56.35
2016-08-27T05:50:59.902Z,56.15
2016-08-27T05:51:34.185Z,56.35
2016-08-27T05:52:08.483Z,56.64
2016-08-27T05:52:42.770Z,55.77
2016-08-27T05:53:17.065Z,56.05
2016-08-27T05:53:51.357Z,56.25
2016-08-27T05:54:25.648Z,55.67
2016-08-27T05:54:59.932Z,56.35
2016-08-27T05:55:34.209Z,56.15
2016-08-27T05:56:08.481Z,56.35
2016-08-27T05:56:42.753Z,56.25
2016-08-27T05:57:17.056Z,56.35
2016-08-27T05:57:51.349Z,55.57
2016-08-27T05:58:25.636Z,55.67
2016-08-27T05:58:59.941Z,56.15
2016-08-27T05:59:34.218Z,55.57
2016-08-27T06:00:08.486Z,55.57
2016-08-27T06:00:42.771Z,55.87
2016-08-27T06:01:17.054Z,55.87
2016-08-27T06:01:51.357Z,55.77
2016-08-27T06:02:25.669Z,55.96
2016-08-27T06:02:59.946Z,55.67
2016-08-27T06:03:34.234Z,55.89
2016-08-27T06:04:08.517Z,55.77
2016-08-27T06:04:43.602Z,56.05
2016-08-27T06:05:17.882Z,55.77
2016-08-27T06:05:52.170Z,56.09
2016-08-27T06:06:26.466Z,56.05
2016-08-27T06:07:00.765Z,56.37
2016-08-27T06:07:35.048Z,55.89
2016-08-27T06:08:09.340Z,55.77
2016-08-27T06:08:43.642Z,55.79
2016-08-27T06:09:17.921Z,55.79
2016-08-27T06:09:52.205Z,55.99
2016-08-27T06:10:26.507Z,55.89
2016-08-27T06:11:00.804Z,56.18
2016-08-27T06:11:35.107Z,55.89
2016-08-27T06:12:09.396Z,55.89
2016-08-27T06:12:43.684Z,55.99
2016-08-27T06:13:17.975Z,55.99
2016-08-27T06:13:52.271Z,55.69
2016-08-27T06:14:26.538Z,55.99
2016-08-27T06:15:00.817Z,56.28
2016-08-27T06:15:35.099Z,55.99
2016-08-27T06:16:09.397Z,55.79
2016-08-27T06:16:43.707Z,55.89
2016-08-27T06:17:17.996Z,55.79
2016-08-27T06:17:52.289Z,55.79
2016-08-27T06:18:26.575Z,55.99
2016-08-27T06:19:00.855Z,55.79
2016-08-27T06:19:35.141Z,55.79
2016-08-27T06:20:09.427Z,55.89
2016-08-27T06:20:43.706Z,55.89
2016-08-27T06:21:17.991Z,55.79
2016-08-27T06:21:52.281Z,55.69
2016-08-27T06:22:26.576Z,56.18
2016-08-27T06:23:00.877Z,55.73
2016-08-27T06:23:35.173Z,55.92
2016-08-27T06:24:09.461Z,55.73
2016-08-27T06:24:43.748Z,56.01
2016-08-27T06:25:18.033Z,55.73
2016-08-27T06:25:52.308Z,56.01
2016-08-27T06:26:26.819Z,55.73
2016-08-27T06:27:01.093Z,55.82
2016-08-27T06:27:35.395Z,55.82
2016-08-27T06:28:09.695Z,55.82
2016-08-27T06:28:43.983Z,55.92
2016-08-27T06:29:18.289Z,55.92
2016-08-27T06:29:52.564Z,56.01
2016-08-27T06:30:26.870Z,56.01
2016-08-27T06:31:01.156Z,55.92
2016-08-27T06:31:35.469Z,56.11
2016-08-27T06:32:09.750Z,56.01
2016-08-27T06:32:44.040Z,56.01
2016-08-27T06:33:18.328Z,55.82
2016-08-27T06:33:52.608Z,55.82
2016-08-27T06:34:26.877Z,55.92
2016-08-27T06:35:01.167Z,55.53
2016-08-27T06:35:35.461Z,55.53
2016-08-27T06:36:09.758Z,55.63
2016-08-27T06:36:44.051Z,55.24
2016-08-27T06:37:18.337Z,55.53
2016-08-27T06:37:52.640Z,55.27
2016-08-27T06:38:26.929Z,55.14
2016-08-27T06:39:01.206Z,55.14
2016-08-27T06:39:35.483Z,55.07
2016-08-27T06:40:09.775Z,55.17
2016-08-27T06:40:44.081Z,55.85
2016-08-27T06:41:18.366Z,55.17
2016-08-27T06:41:52.649Z,55.82
2016-08-27T06:42:26.942Z,55.46
2016-08-27T06:43:01.233Z,55.27
2016-08-27T06:43:35.515Z,55.36
2016-08-27T06:44:09.813Z,55.36
2016-08-27T06:44:44.111Z,55.46
2016-08-27T06:45:18.387Z,55.55
2016-08-27T06:45:52.664Z,55.55
2016-08-27T06:46:26.943Z,55.85
2016-08-27T06:47:01.226Z,55.65
2016-08-27T06:47:35.509Z,55.75
2016-08-27T06:48:09.796Z,56.04
2016-08-27T06:48:44.088Z,55.65
2016-08-27T06:49:18.386Z,55.55
2016-08-27T06:49:52.666Z,55.65
2016-08-27T06:50:26.939Z,55.55
2016-08-27T06:51:01.217Z,55.46
2016-08-27T06:51:35.506Z,55.46
2016-08-27T06:52:09.801Z,55.65
2016-08-27T06:52:44.090Z,55.58
2016-08-27T06:53:18.355Z,55.39
2016-08-27T06:53:52.654Z,55.36
2016-08-27T06:54:26.927Z,55.27
2016-08-27T06:55:01.216Z,55.49
2016-08-27T06:55:35.509Z,55.68
2016-08-27T06:56:09.813Z,55.39
2016-08-27T06:56:44.088Z,56.16
2016-08-27T06:57:18.361Z,55.29
2016-08-27T06:57:52.652Z,55.19
2016-08-27T06:58:26.925Z,55.29
2016-08-27T06:59:01.210Z,55.49
2016-08-27T06:59:35.491Z,55.49
2016-08-27T07:00:09.800Z,55.49
2016-08-27T07:00:44.086Z,55.39
2016-08-27T07:01:18.391Z,55.39
2016-08-27T07:01:52.687Z,55.49
2016-08-27T07:02:27.010Z,55.29
2016-08-27T07:03:01.300Z,55.88
2016-08-27T07:03:35.611Z,55.29
2016-08-27T07:04:09.904Z,55.39
2016-08-27T07:04:44.176Z,55.19
2016-08-27T07:05:18.467Z,55.29
2016-08-27T07:05:52.745Z,55.29
2016-08-27T07:06:27.023Z,56.16
2016-08-27T07:07:01.297Z,55.39
2016-08-27T07:07:35.569Z,55.39
2016-08-27T07:08:09.871Z,55.39
2016-08-27T07:08:44.176Z,55.68
2016-08-27T07:09:18.469Z,55.61
2016-08-27T07:09:52.742Z,55.19
2016-08-27T07:10:27.045Z,55.41
2016-08-27T07:11:01.320Z,55.22
2016-08-27T07:11:35.612Z,55.03
2016-08-27T07:12:09.888Z,55.03
2016-08-27T07:12:44.186Z,55.03
2016-08-27T07:13:18.473Z,55.03
2016-08-27T07:13:52.746Z,54.93
2016-08-27T07:14:27.058Z,55.03
2016-08-27T07:15:01.352Z,55.03
2016-08-27T07:15:35.644Z,55.03
2016-08-27T07:16:09.930Z,54.93
2016-08-27T07:16:44.228Z,55.22
2016-08-27T07:17:18.524Z,55.22
2016-08-27T07:17:52.813Z,55.22
2016-08-27T07:18:27.105Z,55.13
2016-08-27T07:19:01.381Z,55.13
2016-08-27T07:19:35.661Z,55.61
2016-08-27T07:20:09.950Z,55.13
2016-08-27T07:20:44.230Z,55.41
2016-08-27T07:21:18.513Z,54.83
2016-08-27T07:21:52.824Z,54.74
2016-08-27T07:22:27.103Z,54.93
2016-08-27T07:23:01.395Z,55.03
2016-08-27T07:23:35.690Z,55.03
2016-08-27T07:24:09.994Z,55.25